Time;durP1;ratioP1;P1;durP2;ratioP2;P2;SDS_P1;SDS_P2;PMS_P1;PMS_P2;Temp;Humidity;BMP_temperature;BMP_pressure;BME280_temperature;BME280_humidity;BME280_pressure;Samples;Min_cycle;Max_cycle;Signal;HPM_P1;HPM_P2
2023/09/17 00:01:59;;;;;;;10.15;9.15;;;14.60;99.90;;;;;;5011877;28;20041;-54
2023/09/17 00:04:25;;;;;;;8.27;7.40;;;14.50;99.90;;;;;;5010797;28;20099;-50
2023/09/17 00:06:51;;;;;;;8.45;7.65;;;14.50;99.90;;;;;;5012142;28;20041;-54
2023/09/17 00:09:17;;;;;;;11.48;9.25;;;14.50;99.90;;;;;;5011419;28;20139;-52
2023/09/17 00:11:43;;;;;;;14.90;12.50;;;14.50;99.90;;;;;;5013256;28;20045;-54
2023/09/17 00:14:09;;;;;;;15.32;13.65;;;14.40;99.90;;;;;;5011698;28;20390;-53
2023/09/17 00:16:38;;;;;;;15.18;13.57;;;14.40;99.90;;;;;;5011522;28;20560;-53
2023/09/17 00:19:04;;;;;;;12.05;10.85;;;14.40;99.90;;;;;;5011407;28;20057;-55
2023/09/17 00:21:29;;;;;;;10.85;9.75;;;14.40;99.90;;;;;;5010900;28;20507;-55
2023/09/17 00:23:55;;;;;;;10.57;9.48;;;14.40;99.90;;;;;;5013562;28;20053;-55
2023/09/17 00:26:21;;;;;;;11.32;10.13;;;14.30;99.90;;;;;;5010131;28;20055;-54
2023/09/17 00:28:47;;;;;;;10.63;9.30;;;14.30;99.90;;;;;;5012378;28;20033;-54
2023/09/17 00:31:12;;;;;;;10.75;9.65;;;14.30;99.90;;;;;;5009135;28;20507;-55
2023/09/17 00:33:38;;;;;;;11.95;10.25;;;14.30;99.90;;;;;;5009419;28;20052;-54
2023/09/17 00:36:04;;;;;;;13.05;11.50;;;14.30;99.90;;;;;;5012015;28;20048;-53
2023/09/17 00:38:29;;;;;;;11.90;10.10;;;14.30;99.90;;;;;;5011114;28;20045;-55
2023/09/17 00:40:55;;;;;;;11.13;10.05;;;14.20;99.90;;;;;;5013395;28;20040;-55
2023/09/17 00:43:22;;;;;;;13.57;12.18;;;14.20;99.90;;;;;;5010101;28;20038;-55
2023/09/17 00:45:47;;;;;;;14.75;11.13;;;14.20;99.90;;;;;;5011656;28;20046;-54
2023/09/17 00:48:13;;;;;;;10.95;9.95;;;14.20;99.90;;;;;;5010719;28;20048;-53
2023/09/17 00:50:39;;;;;;;12.05;10.73;;;14.20;99.90;;;;;;5012531;28;20111;-54
2023/09/17 00:53:06;;;;;;;11.43;10.23;;;14.10;99.90;;;;;;5010994;28;20072;-54
2023/09/17 00:55:33;;;;;;;12.88;11.57;;;14.10;99.90;;;;;;5009321;28;20041;-54
2023/09/17 00:58:00;;;;;;;14.07;11.90;;;14.10;99.90;;;;;;5010869;28;20072;-55
2023/09/17 01:00:26;;;;;;;16.75;12.48;;;14.10;99.90;;;;;;5011587;28;20037;-55
2023/09/17 01:02:53;;;;;;;13.40;12.00;;;14.00;99.90;;;;;;5012260;28;20045;-54
2023/09/17 01:05:20;;;;;;;14.35;12.85;;;14.00;99.90;;;;;;5003864;28;20045;-53
2023/09/17 01:07:47;;;;;;;14.65;13.15;;;14.00;99.90;;;;;;5010650;28;20041;-51
2023/09/17 01:10:13;;;;;;;17.80;15.63;;;14.00;99.90;;;;;;5009225;28;20092;-54
2023/09/17 01:12:39;;;;;;;20.83;17.85;;;14.00;99.90;;;;;;5010230;28;20076;-53
2023/09/17 01:15:09;;;;;;;22.42;18.52;;;14.00;99.90;;;;;;5011546;28;20045;-52
2023/09/17 01:17:36;;;;;;;22.35;19.08;;;14.00;99.90;;;;;;5005441;28;20053;-52
2023/09/17 01:20:08;;;;;;;22.73;19.63;;;14.00;99.90;;;;;;5008733;28;20045;-51
2023/09/17 01:22:39;;;;;;;24.27;20.65;;;14.00;99.90;;;;;;5008191;28;20861;-55
2023/09/17 01:25:35;;;;;;;20.93;18.73;;;14.00;99.90;;;;;;5007495;28;20413;-53
2023/09/17 01:28:02;;;;;;;22.48;19.83;;;14.00;99.90;;;;;;5009603;28;20033;-52
2023/09/17 01:30:28;;;;;;;21.45;19.15;;;14.00;99.90;;;;;;5010571;28;20070;-54
2023/09/17 01:32:53;;;;;;;20.67;17.98;;;14.00;99.90;;;;;;5010452;28;20056;-55
2023/09/17 01:35:20;;;;;;;19.73;17.00;;;14.00;99.90;;;;;;5010198;28;20042;-54
2023/09/17 01:37:59;;;;;;;17.95;16.05;;;14.00;99.90;;;;;;5007850;28;20049;-55
2023/09/17 01:40:25;;;;;;;11.40;10.10;;;14.00;99.90;;;;;;5007814;28;20600;-54
2023/09/17 01:42:52;;;;;;;11.02;9.73;;;14.00;99.90;;;;;;5009545;28;20038;-54
2023/09/17 01:45:18;;;;;;;14.15;11.23;;;14.00;99.90;;;;;;5009325;28;20568;-54
2023/09/17 01:47:47;;;;;;;14.32;11.77;;;13.90;99.90;;;;;;5011999;28;20439;-54
2023/09/17 01:50:15;;;;;;;16.20;13.30;;;13.90;99.90;;;;;;5009605;28;20048;-53
2023/09/17 01:52:42;;;;;;;16.17;12.88;;;13.90;99.90;;;;;;5011122;28;20336;-51
2023/09/17 01:55:08;;;;;;;18.00;14.13;;;13.80;99.90;;;;;;5007240;28;20037;-55
2023/09/17 01:57:34;;;;;;;24.55;17.65;;;13.80;99.90;;;;;;5008080;28;20466;-54
2023/09/17 02:00:00;;;;;;;21.38;17.52;;;13.80;99.90;;;;;;5009241;28;20120;-52
2023/09/17 02:02:26;;;;;;;19.58;16.63;;;13.90;99.90;;;;;;5010976;28;20045;-55
2023/09/17 02:04:52;;;;;;;22.00;17.33;;;13.90;99.90;;;;;;5011642;28;20037;-53
2023/09/17 02:07:18;;;;;;;18.90;16.63;;;13.90;99.90;;;;;;5011137;28;20037;-55
2023/09/17 02:09:44;;;;;;;18.75;15.98;;;13.90;99.90;;;;;;5009075;28;20048;-54
2023/09/17 02:12:10;;;;;;;20.35;15.93;;;13.90;99.90;;;;;;5012462;28;20480;-54
2023/09/17 02:14:35;;;;;;;18.65;13.65;;;13.90;99.90;;;;;;5025709;28;20044;-53
2023/09/17 02:17:03;;;;;;;19.48;14.40;;;13.90;99.90;;;;;;5010592;28;20417;-55
2023/09/17 02:19:28;;;;;;;15.50;13.77;;;13.90;99.90;;;;;;5007994;28;20084;-55
2023/09/17 02:21:54;;;;;;;15.20;13.48;;;13.90;99.90;;;;;;5010395;28;20060;-54
2023/09/17 02:24:20;;;;;;;15.70;14.10;;;13.90;99.90;;;;;;4982675;28;20505;-54
2023/09/17 02:26:47;;;;;;;15.98;14.27;;;13.80;99.90;;;;;;5009072;28;20103;-55
2023/09/17 02:29:13;;;;;;;20.52;15.40;;;13.90;99.90;;;;;;5008217;28;20103;-53
2023/09/17 02:31:39;;;;;;;20.15;16.83;;;13.90;99.90;;;;;;5007789;28;20054;-53
2023/09/17 02:34:04;;;;;;;18.42;15.45;;;14.00;99.90;;;;;;5007524;28;20090;-53
2023/09/17 02:36:30;;;;;;;19.65;16.48;;;14.00;99.90;;;;;;5007705;28;20046;-55
2023/09/17 02:38:56;;;;;;;19.00;15.98;;;14.00;99.90;;;;;;5009270;28;20045;-54
2023/09/17 02:41:23;;;;;;;16.67;14.88;;;14.00;99.90;;;;;;5005600;28;20044;-55
2023/09/17 02:43:48;;;;;;;17.40;13.50;;;14.00;99.90;;;;;;5000940;28;20077;-55
2023/09/17 02:46:14;;;;;;;14.50;11.85;;;14.10;99.90;;;;;;4990725;28;20126;-54
2023/09/17 02:48:40;;;;;;;14.45;12.85;;;14.10;99.90;;;;;;5010895;28;20504;-55
2023/09/17 02:51:06;;;;;;;17.50;13.68;;;14.00;99.90;;;;;;5013027;28;20125;-55
2023/09/17 02:53:31;;;;;;;18.10;14.18;;;14.00;99.90;;;;;;5011973;28;20564;-53
2023/09/17 02:55:58;;;;;;;17.30;15.50;;;14.00;99.90;;;;;;5013683;28;20397;-55
2023/09/17 02:58:24;;;;;;;16.08;14.10;;;14.00;99.90;;;;;;5012588;28;20041;-54
2023/09/17 03:00:50;;;;;;;14.18;12.68;;;14.00;99.90;;;;;;5012892;28;20136;-54
2023/09/17 03:03:16;;;;;;;21.55;18.15;;;14.00;99.90;;;;;;4995362;28;20084;-54
2023/09/17 03:05:46;;;;;;;26.92;20.27;;;14.00;99.90;;;;;;5011630;28;20052;-51
2023/09/17 03:08:12;;;;;;;23.45;20.00;;;14.00;99.90;;;;;;5011849;28;20065;-52
2023/09/17 03:10:42;;;;;;;22.70;20.20;;;14.10;99.90;;;;;;5011859;28;20136;-55
2023/09/17 03:13:14;;;;;;;29.60;23.35;;;14.10;99.90;;;;;;5010494;28;20053;-54
2023/09/17 03:15:40;;;;;;;30.90;23.42;;;14.10;99.90;;;;;;5013427;28;20619;-55
2023/09/17 03:18:06;;;;;;;27.55;22.15;;;14.20;99.90;;;;;;5013983;28;20128;-52
2023/09/17 03:20:34;;;;;;;27.40;23.70;;;14.20;99.90;;;;;;5009441;28;20180;-55
2023/09/17 03:23:04;;;;;;;29.80;24.95;;;14.20;99.90;;;;;;5011933;28;20132;-53
2023/09/17 03:25:31;;;;;;;29.40;25.52;;;14.30;99.90;;;;;;5009817;28;20041;-53
2023/09/17 03:27:57;;;;;;;28.80;24.13;;;14.30;99.90;;;;;;5010485;28;20911;-54
2023/09/17 03:30:24;;;;;;;44.28;30.42;;;14.40;99.90;;;;;;4982076;28;20053;-54
2023/09/17 03:32:50;;;;;;;37.38;30.55;;;14.40;99.90;;;;;;5010728;28;20128;-53
2023/09/17 03:35:16;;;;;;;45.70;34.28;;;14.50;99.90;;;;;;5012123;28;20549;-55
2023/09/17 03:37:43;;;;;;;41.38;33.20;;;14.50;99.90;;;;;;5009361;28;20041;-53
2023/09/17 03:40:11;;;;;;;48.65;36.47;;;14.60;99.90;;;;;;5010097;28;20156;-53
2023/09/17 03:42:38;;;;;;;42.92;34.10;;;14.70;99.90;;;;;;5014564;28;20068;-54
2023/09/17 03:45:09;;;;;;;42.42;34.40;;;14.70;99.90;;;;;;5009027;28;20160;-53
2023/09/17 03:47:43;;;;;;;49.10;34.85;;;14.80;99.90;;;;;;5013413;28;20029;-54
2023/09/17 03:50:09;;;;;;;40.08;31.17;;;14.80;99.90;;;;;;5009197;28;20060;-53
2023/09/17 03:52:37;;;;;;;39.22;32.75;;;14.90;99.90;;;;;;5012350;28;20067;-54
2023/09/17 03:55:07;;;;;;;41.45;32.65;;;14.90;99.90;;;;;;5011145;28;20052;-55
2023/09/17 03:57:37;;;;;;;39.97;31.38;;;15.00;99.90;;;;;;5011651;28;20127;-54
2023/09/17 04:00:15;;;;;;;38.70;32.15;;;15.00;99.90;;;;;;5009527;28;20054;-55
2023/09/17 04:02:42;;;;;;;38.20;31.90;;;15.10;99.90;;;;;;5009305;28;20128;-55
2023/09/17 04:05:13;;;;;;;39.13;31.63;;;15.10;99.90;;;;;;5009194;28;20467;-52
2023/09/17 04:07:45;;;;;;;35.95;30.65;;;15.10;99.90;;;;;;4996395;28;20036;-54
2023/09/17 04:10:12;;;;;;;37.58;30.23;;;15.20;99.90;;;;;;5010040;28;20045;-54
2023/09/17 04:12:40;;;;;;;43.58;32.92;;;15.20;99.90;;;;;;4993695;28;20497;-54
2023/09/17 04:15:19;;;;;;;41.10;31.27;;;15.20;99.90;;;;;;5011267;28;20034;-53
2023/09/17 04:17:49;;;;;;;39.60;32.72;;;15.30;99.90;;;;;;5013336;28;20052;-54
2023/09/17 04:20:18;;;;;;;40.65;32.65;;;15.30;99.90;;;;;;5009577;28;20563;-55
2023/09/17 04:22:46;;;;;;;41.33;32.95;;;15.40;99.90;;;;;;5008197;28;20662;-54
2023/09/17 04:25:13;;;;;;;42.42;31.40;;;15.40;99.90;;;;;;4991629;28;20712;-54
2023/09/17 04:27:43;;;;;;;39.55;29.27;;;15.40;99.90;;;;;;4992764;28;20485;-55
2023/09/17 04:30:10;;;;;;;38.10;30.65;;;15.50;99.90;;;;;;4990769;28;20042;-51
2023/09/17 04:32:41;;;;;;;33.85;28.40;;;15.50;99.90;;;;;;4992887;28;20038;-53
2023/09/17 04:35:11;;;;;;;34.67;29.60;;;15.50;99.90;;;;;;4988892;28;20049;-55
2023/09/17 04:37:39;;;;;;;37.15;29.25;;;15.50;99.90;;;;;;4991584;28;20045;-54
2023/09/17 04:40:09;;;;;;;34.90;28.20;;;15.50;99.90;;;;;;4992240;28;20077;-55
2023/09/17 04:42:46;;;;;;;34.58;28.10;;;15.50;99.90;;;;;;4992456;28;20037;-53
2023/09/17 04:45:18;;;;;;;39.17;29.52;;;15.50;99.90;;;;;;4991180;28;20046;-55
2023/09/17 04:47:44;;;;;;;35.95;29.27;;;15.50;99.90;;;;;;4994055;28;20042;-55
2023/09/17 04:50:10;;;;;;;38.22;28.88;;;15.50;99.90;;;;;;4990480;28;20034;-55
2023/09/17 04:52:36;;;;;;;37.22;29.63;;;15.60;99.90;;;;;;4978750;28;20091;-55
2023/09/17 04:55:03;;;;;;;38.00;28.92;;;15.60;99.90;;;;;;4992135;28;20046;-54
2023/09/17 04:57:29;;;;;;;37.72;29.95;;;15.60;99.90;;;;;;4975935;28;20501;-55
2023/09/17 04:59:55;;;;;;;37.92;30.08;;;15.60;99.90;;;;;;4980719;28;20482;-54
2023/09/17 05:02:21;;;;;;;41.13;31.83;;;15.70;99.90;;;;;;4988091;28;20044;-54
2023/09/17 05:04:47;;;;;;;40.38;30.73;;;15.60;99.90;;;;;;4991662;28;20099;-54
2023/09/17 05:07:14;;;;;;;41.33;31.45;;;15.70;99.90;;;;;;4991221;28;20433;-54
2023/09/17 05:09:40;;;;;;;38.15;30.83;;;15.70;99.90;;;;;;4991396;28;20046;-54
2023/09/17 05:12:08;;;;;;;45.97;33.28;;;15.70;99.90;;;;;;4990133;28;20414;-55
2023/09/17 05:14:33;;;;;;;44.50;31.52;;;15.70;99.90;;;;;;4975339;28;20049;-54
2023/09/17 05:16:59;;;;;;;44.17;32.13;;;15.70;99.90;;;;;;4990386;28;20394;-54
2023/09/17 05:19:25;;;;;;;40.72;31.73;;;15.80;99.90;;;;;;4990294;28;20449;-53
2023/09/17 05:21:51;;;;;;;39.30;31.00;;;15.70;99.90;;;;;;4993069;28;20578;-55
2023/09/17 05:24:17;;;;;;;42.75;31.98;;;15.70;99.90;;;;;;4991962;28;20037;-54
2023/09/17 05:26:43;;;;;;;38.80;31.00;;;15.70;99.90;;;;;;5011074;28;20045;-54
2023/09/17 05:29:11;;;;;;;37.05;30.95;;;15.80;99.90;;;;;;5007607;28;20396;-55
2023/09/17 05:31:37;;;;;;;42.08;29.88;;;15.80;99.90;;;;;;5010110;28;20831;-55
2023/09/17 05:34:03;;;;;;;37.15;30.17;;;15.80;99.90;;;;;;5009830;28;20045;-55
2023/09/17 05:36:30;;;;;;;37.05;30.30;;;15.80;99.90;;;;;;5009299;28;20137;-55
2023/09/17 05:38:57;;;;;;;36.40;28.38;;;15.80;99.90;;;;;;5011660;28;20056;-55
2023/09/17 05:41:22;;;;;;;36.22;29.27;;;15.80;99.90;;;;;;5009865;28;20041;-54
2023/09/17 05:43:48;;;;;;;36.22;28.95;;;15.80;99.90;;;;;;5010972;28;20449;-55
2023/09/17 05:46:14;;;;;;;39.97;30.75;;;15.80;99.90;;;;;;5011365;28;20499;-55
2023/09/17 05:48:39;;;;;;;36.35;29.40;;;15.80;99.90;;;;;;5011020;28;20080;-55
2023/09/17 05:51:07;;;;;;;40.80;30.42;;;15.80;99.90;;;;;;5010496;28;20113;-53
2023/09/17 05:53:33;;;;;;;38.22;30.88;;;15.90;99.90;;;;;;5007231;28;20500;-55
2023/09/17 05:56:00;;;;;;;36.33;29.08;;;15.90;99.90;;;;;;5009523;28;20037;-53
2023/09/17 05:58:25;;;;;;;35.45;28.48;;;15.90;99.90;;;;;;5009018;28;20578;-56
2023/09/17 06:00:53;;;;;;;36.55;28.52;;;15.90;99.90;;;;;;5011202;28;20030;-52
2023/09/17 06:03:19;;;;;;;36.35;28.67;;;16.00;99.90;;;;;;5009766;28;20046;-55
2023/09/17 06:05:44;;;;;;;32.92;27.90;;;16.00;99.90;;;;;;5005839;28;20045;-54
2023/09/17 06:08:10;;;;;;;36.78;27.25;;;16.00;99.90;;;;;;5009206;28;20175;-52
2023/09/17 06:10:36;;;;;;;36.88;28.63;;;16.00;99.90;;;;;;5007826;28;20072;-54
2023/09/17 06:13:02;;;;;;;32.03;26.55;;;16.00;99.90;;;;;;5005019;28;20045;-55
2023/09/17 06:15:28;;;;;;;33.85;27.40;;;16.00;99.90;;;;;;5007473;28;20037;-55
2023/09/17 06:17:53;;;;;;;34.58;27.80;;;16.10;99.90;;;;;;5010380;28;20405;-53
2023/09/17 06:20:19;;;;;;;30.50;26.05;;;16.10;99.90;;;;;;5007139;28;20041;-55
2023/09/17 06:22:47;;;;;;;36.90;29.15;;;16.10;99.90;;;;;;5013432;28;20128;-55
2023/09/17 06:25:13;;;;;;;33.53;28.02;;;16.10;99.90;;;;;;5013426;28;20409;-55
2023/09/17 06:27:39;;;;;;;37.15;29.40;;;16.10;99.90;;;;;;5013197;28;20056;-55
2023/09/17 06:30:05;;;;;;;41.28;30.52;;;16.20;99.90;;;;;;5014592;28;20392;-54
2023/09/17 06:32:31;;;;;;;38.63;29.50;;;16.20;99.90;;;;;;5012199;28;20042;-56
2023/09/17 06:34:57;;;;;;;38.42;29.67;;;16.30;99.90;;;;;;5012580;28;20049;-54
2023/09/17 06:37:23;;;;;;;39.95;31.15;;;16.30;99.90;;;;;;5011769;28;20131;-55
2023/09/17 06:39:49;;;;;;;37.05;29.65;;;16.30;99.90;;;;;;5015858;28;20041;-53
2023/09/17 06:42:15;;;;;;;39.25;30.65;;;16.40;99.90;;;;;;5014253;28;20033;-51
2023/09/17 06:44:40;;;;;;;39.35;30.48;;;16.40;99.90;;;;;;5006372;28;20488;-54
2023/09/17 06:47:06;;;;;;;35.70;31.08;;;16.50;99.90;;;;;;5014279;28;20037;-55
2023/09/17 06:49:32;;;;;;;36.75;30.30;;;16.50;99.90;;;;;;5012191;28;20240;-54
2023/09/17 06:51:58;;;;;;;40.90;30.17;;;16.50;99.90;;;;;;5016277;28;20641;-53
2023/09/17 06:54:23;;;;;;;39.70;30.65;;;16.60;99.90;;;;;;5012785;28;20381;-53
2023/09/17 06:56:49;;;;;;;38.88;31.88;;;16.70;99.90;;;;;;5014233;28;20049;-54
2023/09/17 06:59:15;;;;;;;38.53;29.95;;;16.70;99.90;;;;;;5012363;28;20488;-55
2023/09/17 07:01:43;;;;;;;41.22;30.92;;;16.70;99.90;;;;;;5010483;28;20316;-56
2023/09/17 07:04:08;;;;;;;44.80;32.63;;;16.80;99.90;;;;;;5015655;28;20129;-56
2023/09/17 07:06:34;;;;;;;39.75;30.45;;;16.80;99.90;;;;;;5012890;28;20041;-54
2023/09/17 07:09:00;;;;;;;38.92;31.02;;;16.90;99.90;;;;;;5011620;28;20461;-55
2023/09/17 07:11:25;;;;;;;40.83;32.22;;;16.90;99.90;;;;;;5011556;28;20049;-52
2023/09/17 07:13:51;;;;;;;36.63;29.98;;;17.00;99.90;;;;;;5006512;28;20037;-54
2023/09/17 07:16:18;;;;;;;40.67;30.60;;;17.10;99.90;;;;;;5007548;28;20037;-55
2023/09/17 07:18:44;;;;;;;37.20;30.23;;;17.10;99.90;;;;;;5010262;28;20053;-55
2023/09/17 07:21:10;;;;;;;39.60;30.83;;;17.20;99.90;;;;;;5009362;28;20052;-55
2023/09/17 07:23:36;;;;;;;39.05;30.50;;;17.30;99.90;;;;;;5008291;28;20041;-56
2023/09/17 07:26:03;;;;;;;37.00;30.05;;;17.30;99.90;;;;;;5010194;28;20041;-56
2023/09/17 07:28:29;;;;;;;38.67;31.50;;;17.40;99.90;;;;;;5012434;28;20405;-54
2023/09/17 07:30:56;;;;;;;40.58;30.77;;;17.50;99.90;;;;;;5014708;28;20041;-55
2023/09/17 07:33:22;;;;;;;35.85;29.25;;;17.50;99.90;;;;;;5011060;28;20116;-56
2023/09/17 07:35:48;;;;;;;36.17;30.05;;;17.60;99.90;;;;;;5008032;28;20486;-52
2023/09/17 07:38:14;;;;;;;32.55;28.02;;;17.60;99.90;;;;;;5009739;28;20044;-55
2023/09/17 07:40:40;;;;;;;34.05;29.38;;;17.70;99.90;;;;;;5010888;28;20136;-55
2023/09/17 07:43:06;;;;;;;38.80;28.92;;;17.80;99.90;;;;;;5013677;28;20046;-56
2023/09/17 07:45:34;;;;;;;35.88;28.17;;;17.90;99.90;;;;;;5011392;28;20458;-55
2023/09/17 07:48:03;;;;;;;34.42;27.92;;;18.00;99.90;;;;;;5005984;28;20094;-55
2023/09/17 07:50:29;;;;;;;35.38;26.58;;;18.20;99.90;;;;;;4996850;28;20038;-56
2023/09/17 07:52:55;;;;;;;31.52;26.23;;;18.30;99.90;;;;;;4998978;28;20592;-55
2023/09/17 07:55:20;;;;;;;34.22;27.50;;;18.40;99.90;;;;;;5014470;28;20164;-56
2023/09/17 07:57:46;;;;;;;31.70;26.55;;;18.50;99.90;;;;;;5012444;28;20045;-56
2023/09/17 08:00:15;;;;;;;31.35;25.55;;;18.50;99.90;;;;;;5011248;28;20045;-55
2023/09/17 08:02:43;;;;;;;31.55;25.70;;;18.50;99.90;;;;;;5010698;28;20073;-56
2023/09/17 08:05:09;;;;;;;30.73;25.30;;;18.50;99.90;;;;;;5010734;28;20041;-55
2023/09/17 08:07:36;;;;;;;31.92;25.10;;;18.50;99.90;;;;;;5007694;28;20072;-55
2023/09/17 08:10:06;;;;;;;30.25;25.50;;;18.60;99.90;;;;;;5009455;28;20037;-56
2023/09/17 08:12:32;;;;;;;31.15;25.08;;;18.60;99.90;;;;;;5009366;28;20092;-57
2023/09/17 08:14:58;;;;;;;33.05;25.38;;;18.60;99.90;;;;;;5010489;28;20048;-56
2023/09/17 08:17:24;;;;;;;32.45;26.60;;;18.60;99.90;;;;;;5009368;28;20083;-56
2023/09/17 08:19:49;;;;;;;31.70;26.00;;;18.60;99.90;;;;;;5013862;28;20175;-54
2023/09/17 08:22:15;;;;;;;33.33;25.90;;;18.60;99.90;;;;;;5011414;28;20068;-55
2023/09/17 08:24:41;;;;;;;33.30;26.08;;;18.60;99.90;;;;;;5002867;28;20057;-56
2023/09/17 08:27:07;;;;;;;32.30;26.40;;;18.60;99.90;;;;;;4999611;28;20049;-56
2023/09/17 08:29:33;;;;;;;33.92;25.67;;;18.60;99.90;;;;;;5006219;28;20053;-54
2023/09/17 08:31:59;;;;;;;33.42;26.58;;;18.70;99.90;;;;;;5008751;28;20049;-55
2023/09/17 08:34:25;;;;;;;37.33;26.95;;;18.60;99.90;;;;;;5009649;28;20480;-55
2023/09/17 08:36:51;;;;;;;33.00;26.23;;;18.70;99.90;;;;;;5014119;28;20398;-56
2023/09/17 08:39:17;;;;;;;30.80;25.83;;;18.70;99.90;;;;;;5009179;28;20147;-56
2023/09/17 08:41:43;;;;;;;35.15;26.98;;;18.70;99.90;;;;;;5011189;28;20041;-55
2023/09/17 08:44:09;;;;;;;35.50;26.52;;;18.70;99.90;;;;;;5008434;28;20038;-55
2023/09/17 08:46:36;;;;;;;36.22;26.55;;;18.70;99.90;;;;;;5012624;28;20040;-56
2023/09/17 08:49:02;;;;;;;29.58;25.20;;;18.80;99.90;;;;;;5012500;28;20116;-57
2023/09/17 08:51:37;;;;;;;30.10;25.58;;;18.80;99.90;;;;;;5009269;28;20360;-55
2023/09/17 08:54:25;;;;;;;30.75;25.52;;;18.90;99.90;;;;;;5006992;28;20409;-56
2023/09/17 08:56:52;;;;;;;30.80;24.27;;;19.00;99.90;;;;;;5006776;28;20112;-55
2023/09/17 08:59:45;;;;;;;28.35;24.05;;;19.00;99.90;;;;;;5007953;28;20041;-56
2023/09/17 09:02:22;;;;;;;28.80;23.05;;;19.00;99.90;;;;;;5006398;28;20294;-55
2023/09/17 09:04:50;;;;;;;31.65;23.30;;;18.90;99.90;;;;;;5008749;28;20065;-55
2023/09/17 09:07:20;;;;;;;29.17;24.10;;;18.90;99.90;;;;;;5004386;28;20099;-52
2023/09/17 09:09:48;;;;;;;30.95;23.08;;;18.90;99.90;;;;;;5009792;28;20559;-54
2023/09/17 09:12:15;;;;;;;30.63;23.38;;;18.90;99.90;;;;;;5009641;28;20084;-53
2023/09/17 09:14:44;;;;;;;30.08;23.02;;;18.90;99.90;;;;;;5014768;28;20045;-54
2023/09/17 09:17:13;;;;;;;28.35;21.90;;;18.90;99.90;;;;;;5012288;28;20042;-55
2023/09/17 09:19:40;;;;;;;25.42;20.67;;;18.80;99.90;;;;;;5011857;28;20048;-54
2023/09/17 09:22:05;;;;;;;26.25;20.40;;;18.90;99.90;;;;;;5012090;28;20417;-54
2023/09/17 09:24:45;;;;;;;25.77;20.17;;;18.90;99.90;;;;;;5013212;28;20059;-53
2023/09/17 09:27:11;;;;;;;25.05;19.27;;;19.00;99.90;;;;;;5014920;28;20429;-53
2023/09/17 09:29:36;;;;;;;21.98;18.45;;;19.00;99.90;;;;;;5013184;28;20046;-53
2023/09/17 09:32:04;;;;;;;23.85;17.48;;;19.00;99.90;;;;;;5012523;28;20074;-51
2023/09/17 09:34:30;;;;;;;23.50;16.52;;;19.00;99.90;;;;;;5009007;28;20164;-54
2023/09/17 09:36:55;;;;;;;22.95;17.20;;;18.90;99.90;;;;;;5009660;28;20172;-56
2023/09/17 09:39:21;;;;;;;21.58;16.40;;;19.00;99.90;;;;;;5010272;28;20188;-53
2023/09/17 09:41:48;;;;;;;23.77;17.15;;;19.00;99.90;;;;;;5014164;28;20100;-56
2023/09/17 09:44:14;;;;;;;22.08;16.98;;;18.90;99.90;;;;;;5003657;28;20041;-55
2023/09/17 09:46:40;;;;;;;30.85;17.52;;;19.00;99.90;;;;;;5009383;28;20400;-52
2023/09/17 09:49:06;;;;;;;21.50;16.63;;;18.90;99.90;;;;;;5007571;28;20044;-56
2023/09/17 09:51:35;;;;;;;19.23;15.00;;;18.90;99.90;;;;;;5008173;28;20041;-54
2023/09/17 09:54:02;;;;;;;16.23;14.48;;;18.90;99.90;;;;;;5011224;28;20128;-54
2023/09/17 09:56:28;;;;;;;22.23;15.65;;;18.90;99.90;;;;;;5010953;28;20041;-56
2023/09/17 09:58:59;;;;;;;21.25;15.65;;;18.80;99.90;;;;;;5004452;28;20041;-54
2023/09/17 10:01:27;;;;;;;22.98;17.20;;;18.80;99.90;;;;;;5018375;28;20694;-54
2023/09/17 10:04:00;;;;;;;19.92;16.33;;;18.80;99.90;;;;;;5013707;28;20371;-56
2023/09/17 10:06:26;;;;;;;23.92;18.70;;;18.70;99.90;;;;;;5014830;28;20599;-54
2023/09/17 10:08:53;;;;;;;21.25;16.95;;;18.70;99.90;;;;;;5013848;28;20041;-55
2023/09/17 10:11:19;;;;;;;22.27;18.20;;;18.80;99.90;;;;;;5013661;28;20045;-55
2023/09/17 10:13:45;;;;;;;22.95;17.88;;;18.70;99.90;;;;;;5012881;28;20080;-53
2023/09/17 10:16:12;;;;;;;21.98;18.15;;;18.80;99.90;;;;;;5013046;28;20041;-55
2023/09/17 10:18:42;;;;;;;23.00;17.48;;;18.80;99.90;;;;;;5014639;28;21467;-55
2023/09/17 10:21:09;;;;;;;23.17;18.00;;;18.80;99.90;;;;;;5016444;28;20381;-55
2023/09/17 10:23:36;;;;;;;22.55;16.73;;;18.80;99.90;;;;;;5015167;28;21014;-53
2023/09/17 10:26:03;;;;;;;20.60;17.55;;;18.90;99.90;;;;;;5019991;28;20034;-55
2023/09/17 10:28:33;;;;;;;22.52;17.95;;;18.90;99.90;;;;;;5014794;28;20042;-54
2023/09/17 10:31:01;;;;;;;19.73;16.67;;;19.00;99.90;;;;;;5015400;28;20046;-55
2023/09/17 10:33:29;;;;;;;18.50;15.40;;;19.00;99.90;;;;;;5013948;28;20106;-53
2023/09/17 10:35:57;;;;;;;17.55;15.38;;;19.00;99.90;;;;;;5013574;28;20057;-55
2023/09/17 10:38:26;;;;;;;17.60;15.27;;;19.00;99.90;;;;;;5013092;28;20570;-55
2023/09/17 10:40:52;;;;;;;18.20;14.82;;;19.10;99.90;;;;;;5015624;28;20120;-56
2023/09/17 10:43:20;;;;;;;21.48;14.82;;;19.10;99.90;;;;;;5014038;28;20089;-55
2023/09/17 10:45:47;;;;;;;18.55;14.70;;;19.10;99.90;;;;;;5016108;28;20381;-54
2023/09/17 10:48:14;;;;;;;18.48;14.65;;;19.10;99.90;;;;;;5016832;28;20041;-55
2023/09/17 10:50:41;;;;;;;19.38;13.93;;;19.10;99.90;;;;;;5012088;28;20038;-53
2023/09/17 10:53:07;;;;;;;17.00;13.98;;;19.10;99.90;;;;;;5010391;28;24496;-56
2023/09/17 10:55:41;;;;;;;17.23;13.88;;;19.20;99.90;;;;;;5016434;28;20069;-55
2023/09/17 10:58:15;;;;;;;16.80;13.50;;;19.20;99.90;;;;;;5013838;28;20599;-54
2023/09/17 11:00:44;;;;;;;18.23;14.35;;;19.20;99.90;;;;;;5013906;28;20378;-55
2023/09/17 11:03:17;;;;;;;18.45;14.82;;;19.20;99.90;;;;;;5015173;28;20041;-55
2023/09/17 11:05:43;;;;;;;18.23;15.15;;;19.30;99.90;;;;;;5014882;28;20500;-55
2023/09/17 11:08:09;;;;;;;16.70;13.82;;;19.30;99.90;;;;;;5013300;28;20489;-53
2023/09/17 11:10:41;;;;;;;17.13;14.43;;;19.40;99.90;;;;;;5013977;28;20025;-54
2023/09/17 11:13:13;;;;;;;18.15;15.07;;;19.40;99.90;;;;;;5014444;28;20447;-55
2023/09/17 11:15:41;;;;;;;20.25;16.30;;;19.40;99.90;;;;;;5012961;28;20045;-55
2023/09/17 11:18:08;;;;;;;18.48;15.23;;;19.50;99.90;;;;;;5011156;28;20449;-56
2023/09/17 11:20:36;;;;;;;17.98;15.50;;;19.50;99.90;;;;;;5013385;28;20558;-54
2023/09/17 11:23:02;;;;;;;20.35;16.42;;;19.50;99.90;;;;;;5011077;28;20084;-54
2023/09/17 11:25:36;;;;;;;20.17;16.83;;;19.50;99.90;;;;;;5013983;28;20095;-55
2023/09/17 11:28:10;;;;;;;19.92;15.52;;;19.60;99.90;;;;;;5010041;28;20045;-54
2023/09/17 11:30:59;;;;;;;21.95;17.10;;;19.60;99.90;;;;;;5010975;28;20393;-54
2023/09/17 11:33:26;;;;;;;24.83;17.38;;;19.70;99.90;;;;;;5006736;28;20092;-57
2023/09/17 11:35:56;;;;;;;22.02;17.48;;;19.70;99.90;;;;;;5011771;28;20045;-54
2023/09/17 11:38:26;;;;;;;19.60;16.50;;;19.70;99.90;;;;;;5011455;28;20152;-54
2023/09/17 11:41:02;;;;;;;19.80;16.42;;;19.70;99.90;;;;;;5013281;28;20154;-54
2023/09/17 11:43:29;;;;;;;19.58;16.92;;;19.80;99.90;;;;;;5008723;28;20045;-56
2023/09/17 11:45:54;;;;;;;18.90;16.40;;;19.90;99.90;;;;;;4993429;28;20157;-52
2023/09/17 11:48:21;;;;;;;19.23;16.05;;;20.00;99.90;;;;;;5013918;28;20045;-56
2023/09/17 11:50:47;;;;;;;23.70;17.10;;;20.10;99.90;;;;;;5010744;28;20046;-56
2023/09/17 11:53:14;;;;;;;21.45;16.80;;;20.20;99.90;;;;;;5008461;28;20103;-53
2023/09/17 11:55:40;;;;;;;18.17;15.98;;;20.20;99.90;;;;;;5013213;28;20049;-56
2023/09/17 11:58:18;;;;;;;17.75;15.88;;;20.10;99.90;;;;;;5012088;28;20500;-55
2023/09/17 12:00:47;;;;;;;17.88;15.27;;;20.00;99.90;;;;;;5014235;28;20556;-53
2023/09/17 12:03:14;;;;;;;19.30;16.60;;;19.90;99.90;;;;;;5012554;28;20493;-54
2023/09/17 12:05:40;;;;;;;19.10;16.38;;;19.90;99.90;;;;;;5013383;28;20592;-54
2023/09/17 12:08:06;;;;;;;22.52;17.15;;;19.80;99.90;;;;;;5015087;28;20050;-56
2023/09/17 12:10:37;;;;;;;20.40;17.00;;;19.80;99.90;;;;;;5011251;28;20108;-54
2023/09/17 12:13:04;;;;;;;22.85;17.13;;;19.80;99.90;;;;;;5009143;28;20341;-55
2023/09/17 12:15:31;;;;;;;22.30;17.83;;;19.80;99.90;;;;;;5012744;28;20052;-53
2023/09/17 12:17:57;;;;;;;21.40;18.23;;;19.80;99.90;;;;;;5008933;28;20042;-52
2023/09/17 12:21:01;;;;;;;22.50;17.98;;;19.90;99.90;;;;;;5008728;28;20046;-56
2023/09/17 12:23:56;;;;;;;26.02;18.10;;;20.00;99.90;;;;;;5012553;28;20046;-55
2023/09/17 12:27:24;;;;;;;21.27;18.40;;;20.10;99.90;;;;;;5005240;28;20037;-55
2023/09/17 12:29:41;;;;;;;20.00;17.80;;;20.30;99.90;;;;;;5006953;28;20033;-54
2023/09/17 12:32:08;;;;;;;20.25;18.05;;;20.60;99.90;;;;;;5013041;28;20060;-55